sensor_id;sensor_type;location;lat;lon;timestamp;P1;durP1;ratioP1;P2;durP2;ratioP2
30707;SDS011;17458;48.958;8.284;2023-01-19T00:00:20;10.83;;;9.00;;
30707;SDS011;17458;48.958;8.284;2023-01-19T00:03:05;14.47;;;9.67;;
30707;SDS011;17458;48.958;8.284;2023-01-19T00:06:05;16.13;;;9.37;;
30707;SDS011;17458;48.958;8.284;2023-01-19T00:08:49;14.07;;;9.73;;
30707;SDS011;17458;48.958;8.284;2023-01-19T00:11:33;18.07;;;9.97;;
30707;SDS011;17458;48.958;8.284;2023-01-19T00:14:18;20.40;;;9.53;;
30707;SDS011;17458;48.958;8.284;2023-01-19T00:17:01;15.23;;;9.70;;
30707;SDS011;17458;48.958;8.284;2023-01-19T00:19:45;12.30;;;9.10;;
30707;SDS011;17458;48.958;8.284;2023-01-19T00:22:29;13.43;;;9.43;;
30707;SDS011;17458;48.958;8.284;2023-01-19T00:25:13;20.53;;;9.50;;
30707;SDS011;17458;48.958;8.284;2023-01-19T00:27:57;15.40;;;10.30;;
30707;SDS011;17458;48.958;8.284;2023-01-19T00:30:42;15.70;;;10.03;;
30707;SDS011;17458;48.958;8.284;2023-01-19T00:33:26;19.60;;;9.87;;
30707;SDS011;17458;48.958;8.284;2023-01-19T00:36:10;16.80;;;9.23;;
30707;SDS011;17458;48.958;8.284;2023-01-19T00:38:54;12.90;;;8.90;;
30707;SDS011;17458;48.958;8.284;2023-01-19T00:41:38;19.03;;;10.33;;
30707;SDS011;17458;48.958;8.284;2023-01-19T00:44:41;12.20;;;9.17;;
30707;SDS011;17458;48.958;8.284;2023-01-19T00:47:25;14.83;;;9.63;;
30707;SDS011;17458;48.958;8.284;2023-01-19T00:50:09;18.87;;;10.03;;
30707;SDS011;17458;48.958;8.284;2023-01-19T00:52:55;13.60;;;7.60;;
30707;SDS011;17458;48.958;8.284;2023-01-19T00:55:40;20.77;;;9.53;;
30707;SDS011;17458;48.958;8.284;2023-01-19T00:58:24;13.33;;;8.50;;
30707;SDS011;17458;48.958;8.284;2023-01-19T01:01:08;13.07;;;9.37;;
30707;SDS011;17458;48.958;8.284;2023-01-19T01:03:52;13.40;;;9.90;;
30707;SDS011;17458;48.958;8.284;2023-01-19T01:06:36;9.77;;;8.77;;
30707;SDS011;17458;48.958;8.284;2023-01-19T01:09:20;11.77;;;8.67;;
30707;SDS011;17458;48.958;8.284;2023-01-19T01:12:04;16.30;;;9.10;;
30707;SDS011;17458;48.958;8.284;2023-01-19T01:14:48;12.90;;;8.93;;
30707;SDS011;17458;48.958;8.284;2023-01-19T01:17:32;16.37;;;8.77;;
30707;SDS011;17458;48.958;8.284;2023-01-19T01:20:17;10.57;;;8.63;;
30707;SDS011;17458;48.958;8.284;2023-01-19T01:23:02;16.53;;;9.13;;
30707;SDS011;17458;48.958;8.284;2023-01-19T01:25:47;13.27;;;8.20;;
30707;SDS011;17458;48.958;8.284;2023-01-19T01:28:30;14.90;;;9.43;;
30707;SDS011;17458;48.958;8.284;2023-01-19T01:31:14;21.13;;;9.10;;
30707;SDS011;17458;48.958;8.284;2023-01-19T01:33:58;19.07;;;9.90;;
30707;SDS011;17458;48.958;8.284;2023-01-19T01:36:42;13.63;;;10.17;;
30707;SDS011;17458;48.958;8.284;2023-01-19T01:39:27;14.93;;;8.63;;
30707;SDS011;17458;48.958;8.284;2023-01-19T01:42:15;11.93;;;9.53;;
30707;SDS011;17458;48.958;8.284;2023-01-19T01:45:06;16.63;;;10.33;;
30707;SDS011;17458;48.958;8.284;2023-01-19T01:56:51;14.50;;;8.90;;
30707;SDS011;17458;48.958;8.284;2023-01-19T01:59:42;12.23;;;9.00;;
30707;SDS011;17458;48.958;8.284;2023-01-19T02:02:29;11.70;;;8.93;;
30707;SDS011;17458;48.958;8.284;2023-01-19T02:05:34;11.67;;;9.53;;
30707;SDS011;17458;48.958;8.284;2023-01-19T02:08:20;12.70;;;9.47;;
30707;SDS011;17458;48.958;8.284;2023-01-19T02:11:29;15.67;;;10.47;;
30707;SDS011;17458;48.958;8.284;2023-01-19T02:14:34;12.83;;;9.93;;
30707;SDS011;17458;48.958;8.284;2023-01-19T02:17:21;16.70;;;9.17;;
30707;SDS011;17458;48.958;8.284;2023-01-19T02:20:06;13.67;;;8.90;;
30707;SDS011;17458;48.958;8.284;2023-01-19T02:22:52;13.80;;;9.90;;
30707;SDS011;17458;48.958;8.284;2023-01-19T02:25:39;13.30;;;8.60;;
30707;SDS011;17458;48.958;8.284;2023-01-19T02:28:24;20.23;;;10.90;;
30707;SDS011;17458;48.958;8.284;2023-01-19T02:31:10;15.90;;;9.67;;
30707;SDS011;17458;48.958;8.284;2023-01-19T02:33:55;20.17;;;10.67;;
30707;SDS011;17458;48.958;8.284;2023-01-19T02:36:46;16.47;;;10.43;;
30707;SDS011;17458;48.958;8.284;2023-01-19T02:39:52;12.70;;;9.57;;
30707;SDS011;17458;48.958;8.284;2023-01-19T02:42:49;15.00;;;9.63;;
30707;SDS011;17458;48.958;8.284;2023-01-19T02:45:35;15.20;;;10.90;;
30707;SDS011;17458;48.958;8.284;2023-01-19T02:48:21;17.80;;;10.87;;
30707;SDS011;17458;48.958;8.284;2023-01-19T03:00:53;24.30;;;10.73;;
30707;SDS011;17458;48.958;8.284;2023-01-19T03:03:49;19.00;;;10.07;;
30707;SDS011;17458;48.958;8.284;2023-01-19T03:09:41;18.27;;;9.87;;
30707;SDS011;17458;48.958;8.284;2023-01-19T03:12:40;17.93;;;11.43;;
30707;SDS011;17458;48.958;8.284;2023-01-19T03:15:32;14.10;;;11.20;;
30707;SDS011;17458;48.958;8.284;2023-01-19T03:18:28;14.60;;;10.93;;
30707;SDS011;17458;48.958;8.284;2023-01-19T03:21:15;24.00;;;11.40;;
30707;SDS011;17458;48.958;8.284;2023-01-19T03:24:03;18.03;;;10.60;;
30707;SDS011;17458;48.958;8.284;2023-01-19T03:26:52;13.60;;;9.93;;
30707;SDS011;17458;48.958;8.284;2023-01-19T03:29:41;16.93;;;9.90;;
30707;SDS011;17458;48.958;8.284;2023-01-19T03:32:35;19.33;;;11.97;;
30707;SDS011;17458;48.958;8.284;2023-01-19T03:35:25;13.77;;;11.00;;
30707;SDS011;17458;48.958;8.284;2023-01-19T03:38:14;17.77;;;11.93;;
30707;SDS011;17458;48.958;8.284;2023-01-19T03:41:01;17.00;;;11.63;;
30707;SDS011;17458;48.958;8.284;2023-01-19T03:43:49;18.70;;;11.40;;
30707;SDS011;17458;48.958;8.284;2023-01-19T03:46:36;21.80;;;11.10;;
30707;SDS011;17458;48.958;8.284;2023-01-19T03:49:21;20.33;;;12.17;;
30707;SDS011;17458;48.958;8.284;2023-01-19T03:52:05;14.07;;;8.67;;
30707;SDS011;17458;48.958;8.284;2023-01-19T03:54:49;20.27;;;11.37;;
30707;SDS011;17458;48.958;8.284;2023-01-19T03:57:33;16.57;;;11.47;;
30707;SDS011;17458;48.958;8.284;2023-01-19T04:00:17;13.93;;;10.50;;
30707;SDS011;17458;48.958;8.284;2023-01-19T04:03:02;17.50;;;10.40;;
30707;SDS011;17458;48.958;8.284;2023-01-19T04:05:47;15.30;;;11.10;;
30707;SDS011;17458;48.958;8.284;2023-01-19T04:08:31;19.17;;;11.50;;
30707;SDS011;17458;48.958;8.284;2023-01-19T04:11:15;17.87;;;11.70;;
30707;SDS011;17458;48.958;8.284;2023-01-19T04:13:59;17.93;;;11.67;;
30707;SDS011;17458;48.958;8.284;2023-01-19T04:16:44;15.50;;;11.83;;
30707;SDS011;17458;48.958;8.284;2023-01-19T04:19:28;18.37;;;11.27;;
30707;SDS011;17458;48.958;8.284;2023-01-19T04:22:11;16.33;;;10.80;;
30707;SDS011;17458;48.958;8.284;2023-01-19T04:24:55;18.70;;;13.20;;
30707;SDS011;17458;48.958;8.284;2023-01-19T04:27:39;16.77;;;11.93;;
30707;SDS011;17458;48.958;8.284;2023-01-19T04:30:23;14.77;;;11.00;;
30707;SDS011;17458;48.958;8.284;2023-01-19T04:33:07;17.23;;;12.07;;
30707;SDS011;17458;48.958;8.284;2023-01-19T04:35:51;15.07;;;10.37;;
30707;SDS011;17458;48.958;8.284;2023-01-19T04:38:36;19.50;;;11.77;;
30707;SDS011;17458;48.958;8.284;2023-01-19T04:41:20;17.47;;;11.83;;
30707;SDS011;17458;48.958;8.284;2023-01-19T04:44:03;13.73;;;10.87;;
30707;SDS011;17458;48.958;8.284;2023-01-19T04:46:48;15.77;;;11.27;;
30707;SDS011;17458;48.958;8.284;2023-01-19T04:49:34;13.13;;;10.70;;
30707;SDS011;17458;48.958;8.284;2023-01-19T04:52:20;21.57;;;12.23;;
30707;SDS011;17458;48.958;8.284;2023-01-19T04:55:04;14.43;;;11.60;;
30707;SDS011;17458;48.958;8.284;2023-01-19T04:57:49;15.57;;;10.93;;
30707;SDS011;17458;48.958;8.284;2023-01-19T05:00:33;17.23;;;11.30;;
30707;SDS011;17458;48.958;8.284;2023-01-19T05:03:16;19.30;;;11.60;;
30707;SDS011;17458;48.958;8.284;2023-01-19T05:06:02;17.47;;;10.83;;
30707;SDS011;17458;48.958;8.284;2023-01-19T05:08:46;18.43;;;12.17;;
30707;SDS011;17458;48.958;8.284;2023-01-19T05:11:30;15.70;;;11.10;;
30707;SDS011;17458;48.958;8.284;2023-01-19T05:14:14;17.20;;;11.07;;
30707;SDS011;17458;48.958;8.284;2023-01-19T05:16:58;24.90;;;12.13;;
30707;SDS011;17458;48.958;8.284;2023-01-19T05:19:43;18.97;;;12.47;;
30707;SDS011;17458;48.958;8.284;2023-01-19T05:22:27;15.57;;;10.53;;
30707;SDS011;17458;48.958;8.284;2023-01-19T05:25:11;20.30;;;12.17;;
30707;SDS011;17458;48.958;8.284;2023-01-19T05:27:55;15.80;;;11.13;;
30707;SDS011;17458;48.958;8.284;2023-01-19T05:30:39;13.73;;;10.17;;
30707;SDS011;17458;48.958;8.284;2023-01-19T05:33:23;18.77;;;9.80;;
30707;SDS011;17458;48.958;8.284;2023-01-19T05:36:07;14.80;;;9.67;;
30707;SDS011;17458;48.958;8.284;2023-01-19T05:38:53;16.67;;;10.17;;
30707;SDS011;17458;48.958;8.284;2023-01-19T05:41:37;20.13;;;10.37;;
30707;SDS011;17458;48.958;8.284;2023-01-19T05:44:21;23.17;;;12.80;;
30707;SDS011;17458;48.958;8.284;2023-01-19T05:47:05;15.70;;;11.13;;
30707;SDS011;17458;48.958;8.284;2023-01-19T05:49:49;25.30;;;12.70;;
30707;SDS011;17458;48.958;8.284;2023-01-19T05:52:33;15.67;;;11.60;;
30707;SDS011;17458;48.958;8.284;2023-01-19T05:55:18;18.33;;;12.40;;
30707;SDS011;17458;48.958;8.284;2023-01-19T05:58:02;18.40;;;10.80;;
30707;SDS011;17458;48.958;8.284;2023-01-19T06:00:47;21.57;;;12.50;;
30707;SDS011;17458;48.958;8.284;2023-01-19T06:03:31;21.23;;;11.93;;
30707;SDS011;17458;48.958;8.284;2023-01-19T06:06:16;16.30;;;11.23;;
30707;SDS011;17458;48.958;8.284;2023-01-19T06:09:01;18.33;;;11.03;;
30707;SDS011;17458;48.958;8.284;2023-01-19T06:11:45;13.60;;;10.43;;
30707;SDS011;17458;48.958;8.284;2023-01-19T06:14:29;15.47;;;12.13;;
30707;SDS011;17458;48.958;8.284;2023-01-19T06:17:15;14.83;;;10.73;;
30707;SDS011;17458;48.958;8.284;2023-01-19T06:20:03;13.57;;;10.57;;
30707;SDS011;17458;48.958;8.284;2023-01-19T06:22:48;13.73;;;10.77;;
30707;SDS011;17458;48.958;8.284;2023-01-19T06:25:32;15.40;;;9.70;;
30707;SDS011;17458;48.958;8.284;2023-01-19T06:28:16;16.47;;;10.40;;
30707;SDS011;17458;48.958;8.284;2023-01-19T06:31:01;16.17;;;9.63;;
30707;SDS011;17458;48.958;8.284;2023-01-19T06:33:45;15.17;;;9.40;;
30707;SDS011;17458;48.958;8.284;2023-01-19T06:36:29;18.70;;;10.50;;
30707;SDS011;17458;48.958;8.284;2023-01-19T06:39:14;15.80;;;9.60;;
30707;SDS011;17458;48.958;8.284;2023-01-19T06:41:58;15.27;;;9.67;;
30707;SDS011;17458;48.958;8.284;2023-01-19T06:44:42;14.80;;;11.20;;
30707;SDS011;17458;48.958;8.284;2023-01-19T06:47:29;15.17;;;9.90;;
30707;SDS011;17458;48.958;8.284;2023-01-19T06:50:13;18.57;;;10.40;;
30707;SDS011;17458;48.958;8.284;2023-01-19T06:52:58;14.73;;;9.23;;
30707;SDS011;17458;48.958;8.284;2023-01-19T06:55:42;17.47;;;10.17;;
30707;SDS011;17458;48.958;8.284;2023-01-19T06:58:27;13.93;;;10.47;;
30707;SDS011;17458;48.958;8.284;2023-01-19T07:01:12;12.03;;;10.27;;
30707;SDS011;17458;48.958;8.284;2023-01-19T07:03:57;12.93;;;9.40;;
30707;SDS011;17458;48.958;8.284;2023-01-19T07:06:41;13.27;;;10.77;;
30707;SDS011;17458;48.958;8.284;2023-01-19T07:09:25;16.73;;;11.47;;
30707;SDS011;17458;48.958;8.284;2023-01-19T07:12:09;10.87;;;9.03;;
30707;SDS011;17458;48.958;8.284;2023-01-19T07:14:53;17.27;;;10.50;;
30707;SDS011;17458;48.958;8.284;2023-01-19T07:17:37;13.93;;;9.80;;
30707;SDS011;17458;48.958;8.284;2023-01-19T07:20:21;15.70;;;9.37;;
30707;SDS011;17458;48.958;8.284;2023-01-19T07:23:05;14.27;;;10.07;;
30707;SDS011;17458;48.958;8.284;2023-01-19T07:25:49;12.73;;;9.27;;
30707;SDS011;17458;48.958;8.284;2023-01-19T07:28:33;11.33;;;8.07;;
30707;SDS011;17458;48.958;8.284;2023-01-19T07:31:18;13.17;;;8.50;;
30707;SDS011;17458;48.958;8.284;2023-01-19T07:34:02;15.17;;;9.77;;
30707;SDS011;17458;48.958;8.284;2023-01-19T07:36:46;11.13;;;9.23;;
30707;SDS011;17458;48.958;8.284;2023-01-19T07:39:31;14.93;;;9.93;;
30707;SDS011;17458;48.958;8.284;2023-01-19T07:42:14;19.30;;;9.50;;
30707;SDS011;17458;48.958;8.284;2023-01-19T07:44:59;18.13;;;10.27;;
30707;SDS011;17458;48.958;8.284;2023-01-19T07:47:43;10.23;;;8.27;;
30707;SDS011;17458;48.958;8.284;2023-01-19T07:50:28;13.23;;;8.33;;
30707;SDS011;17458;48.958;8.284;2023-01-19T07:53:13;10.03;;;8.30;;
30707;SDS011;17458;48.958;8.284;2023-01-19T07:55:57;13.17;;;8.53;;
30707;SDS011;17458;48.958;8.284;2023-01-19T07:58:41;12.20;;;9.10;;
30707;SDS011;17458;48.958;8.284;2023-01-19T08:01:26;13.57;;;8.77;;
30707;SDS011;17458;48.958;8.284;2023-01-19T08:04:10;11.17;;;8.87;;
30707;SDS011;17458;48.958;8.284;2023-01-19T08:06:54;13.53;;;8.60;;
30707;SDS011;17458;48.958;8.284;2023-01-19T08:09:39;12.13;;;8.07;;
30707;SDS011;17458;48.958;8.284;2023-01-19T08:12:23;15.73;;;9.00;;
30707;SDS011;17458;48.958;8.284;2023-01-19T08:15:08;12.40;;;7.97;;
30707;SDS011;17458;48.958;8.284;2023-01-19T08:17:54;9.67;;;8.67;;
30707;SDS011;17458;48.958;8.284;2023-01-19T08:20:39;10.63;;;8.20;;
30707;SDS011;17458;48.958;8.284;2023-01-19T08:23:24;9.13;;;6.83;;
30707;SDS011;17458;48.958;8.284;2023-01-19T08:26:24;13.83;;;8.73;;
30707;SDS011;17458;48.958;8.284;2023-01-19T08:29:10;11.63;;;8.20;;
30707;SDS011;17458;48.958;8.284;2023-01-19T08:31:54;10.70;;;8.63;;
30707;SDS011;17458;48.958;8.284;2023-01-19T08:34:40;10.27;;;8.13;;
30707;SDS011;17458;48.958;8.284;2023-01-19T08:37:23;12.30;;;9.13;;
30707;SDS011;17458;48.958;8.284;2023-01-19T08:40:08;10.37;;;8.17;;
30707;SDS011;17458;48.958;8.284;2023-01-19T08:42:52;17.53;;;8.33;;
30707;SDS011;17458;48.958;8.284;2023-01-19T08:45:49;10.50;;;7.43;;
30707;SDS011;17458;48.958;8.284;2023-01-19T08:48:34;11.57;;;9.43;;
30707;SDS011;17458;48.958;8.284;2023-01-19T08:51:19;8.73;;;6.93;;
30707;SDS011;17458;48.958;8.284;2023-01-19T08:54:03;12.27;;;8.10;;
30707;SDS011;17458;48.958;8.284;2023-01-19T08:56:48;12.57;;;7.93;;
30707;SDS011;17458;48.958;8.284;2023-01-19T08:59:31;10.97;;;8.13;;
30707;SDS011;17458;48.958;8.284;2023-01-19T09:02:16;10.23;;;8.03;;
30707;SDS011;17458;48.958;8.284;2023-01-19T09:05:00;11.13;;;7.50;;
30707;SDS011;17458;48.958;8.284;2023-01-19T09:07:44;10.27;;;7.27;;
30707;SDS011;17458;48.958;8.284;2023-01-19T09:10:30;8.17;;;6.33;;
30707;SDS011;17458;48.958;8.284;2023-01-19T09:13:19;10.37;;;7.33;;
30707;SDS011;17458;48.958;8.284;2023-01-19T09:16:03;9.23;;;7.10;;
30707;SDS011;17458;48.958;8.284;2023-01-19T09:18:50;16.37;;;8.27;;
30707;SDS011;17458;48.958;8.284;2023-01-19T09:21:34;9.10;;;7.87;;
30707;SDS011;17458;48.958;8.284;2023-01-19T09:24:18;13.20;;;8.50;;
30707;SDS011;17458;48.958;8.284;2023-01-19T09:27:02;13.13;;;8.00;;
30707;SDS011;17458;48.958;8.284;2023-01-19T09:29:46;9.07;;;7.67;;
30707;SDS011;17458;48.958;8.284;2023-01-19T09:32:35;12.73;;;8.07;;
30707;SDS011;17458;48.958;8.284;2023-01-19T09:35:19;10.07;;;7.20;;
30707;SDS011;17458;48.958;8.284;2023-01-19T09:38:04;9.55;;;7.45;;
30707;SDS011;17458;48.958;8.284;2023-01-19T09:40:56;14.63;;;7.68;;
30707;SDS011;17458;48.958;8.284;2023-01-19T09:43:46;6.80;;;5.83;;
30707;SDS011;17458;48.958;8.284;2023-01-19T09:46:36;12.27;;;8.27;;
30707;SDS011;17458;48.958;8.284;2023-01-19T09:49:39;9.77;;;7.90;;
30707;SDS011;17458;48.958;8.284;2023-01-19T09:52:28;10.03;;;8.10;;
30707;SDS011;17458;48.958;8.284;2023-01-19T09:55:19;20.53;;;11.27;;
30707;SDS011;17458;48.958;8.284;2023-01-19T09:58:10;11.23;;;8.47;;
30707;SDS011;17458;48.958;8.284;2023-01-19T10:01:01;15.97;;;7.53;;
30707;SDS011;17458;48.958;8.284;2023-01-19T10:16:29;14.20;;;8.50;;
30707;SDS011;17458;48.958;8.284;2023-01-19T10:19:28;10.67;;;8.23;;
30707;SDS011;17458;48.958;8.284;2023-01-19T10:22:24;10.97;;;8.33;;
30707;SDS011;17458;48.958;8.284;2023-01-19T10:25:13;13.43;;;8.33;;
30707;SDS011;17458;48.958;8.284;2023-01-19T10:28:02;13.10;;;8.97;;
30707;SDS011;17458;48.958;8.284;2023-01-19T10:30:47;11.97;;;8.27;;
30707;SDS011;17458;48.958;8.284;2023-01-19T10:33:33;11.37;;;7.83;;
30707;SDS011;17458;48.958;8.284;2023-01-19T10:36:20;11.50;;;8.27;;
30707;SDS011;17458;48.958;8.284;2023-01-19T10:39:17;13.33;;;8.47;;
30707;SDS011;17458;48.958;8.284;2023-01-19T10:42:01;14.73;;;8.83;;
30707;SDS011;17458;48.958;8.284;2023-01-19T10:44:46;15.00;;;7.60;;
30707;SDS011;17458;48.958;8.284;2023-01-19T10:47:33;17.07;;;8.80;;
30707;SDS011;17458;48.958;8.284;2023-01-19T10:53:20;9.20;;;7.63;;
30707;SDS011;17458;48.958;8.284;2023-01-19T10:56:24;12.48;;;9.63;;
30707;SDS011;17458;48.958;8.284;2023-01-19T11:05:20;10.50;;;8.63;;
30707;SDS011;17458;48.958;8.284;2023-01-19T11:08:20;9.80;;;7.87;;
30707;SDS011;17458;48.958;8.284;2023-01-19T11:11:13;11.98;;;8.07;;
30707;SDS011;17458;48.958;8.284;2023-01-19T11:14:02;9.93;;;8.23;;
30707;SDS011;17458;48.958;8.284;2023-01-19T11:16:55;10.13;;;8.07;;
30707;SDS011;17458;48.958;8.284;2023-01-19T11:19:56;12.13;;;8.03;;
30707;SDS011;17458;48.958;8.284;2023-01-19T11:22:43;12.23;;;8.80;;
30707;SDS011;17458;48.958;8.284;2023-01-19T11:25:30;18.87;;;8.43;;
30707;SDS011;17458;48.958;8.284;2023-01-19T11:28:21;10.05;;;8.30;;
30707;SDS011;17458;48.958;8.284;2023-01-19T11:31:17;13.40;;;8.50;;
30707;SDS011;17458;48.958;8.284;2023-01-19T11:34:23;10.23;;;7.13;;
30707;SDS011;17458;48.958;8.284;2023-01-19T11:40:03;14.80;;;8.70;;
30707;SDS011;17458;48.958;8.284;2023-01-19T11:42:51;12.93;;;8.40;;
30707;SDS011;17458;48.958;8.284;2023-01-19T11:45:35;16.25;;;9.70;;
30707;SDS011;17458;48.958;8.284;2023-01-19T11:48:34;13.90;;;8.30;;
30707;SDS011;17458;48.958;8.284;2023-01-19T11:51:23;15.60;;;8.02;;
30707;SDS011;17458;48.958;8.284;2023-01-19T11:54:20;11.25;;;7.70;;
30707;SDS011;17458;48.958;8.284;2023-01-19T11:57:13;12.10;;;8.20;;
30707;SDS011;17458;48.958;8.284;2023-01-19T12:00:00;11.35;;;8.25;;
30707;SDS011;17458;48.958;8.284;2023-01-19T12:02:57;16.08;;;8.75;;
30707;SDS011;17458;48.958;8.284;2023-01-19T12:05:51;13.45;;;8.10;;
30707;SDS011;17458;48.958;8.284;2023-01-19T12:08:44;10.65;;;8.05;;
30707;SDS011;17458;48.958;8.284;2023-01-19T12:11:49;13.73;;;8.38;;
30707;SDS011;17458;48.958;8.284;2023-01-19T12:14:41;10.60;;;7.85;;
30707;SDS011;17458;48.958;8.284;2023-01-19T12:17:34;10.38;;;8.18;;
30707;SDS011;17458;48.958;8.284;2023-01-19T12:20:25;9.48;;;7.90;;
30707;SDS011;17458;48.958;8.284;2023-01-19T12:26:34;16.70;;;8.85;;
30707;SDS011;17458;48.958;8.284;2023-01-19T12:29:32;14.60;;;8.23;;
30707;SDS011;17458;48.958;8.284;2023-01-19T12:32:18;11.48;;;8.30;;
30707;SDS011;17458;48.958;8.284;2023-01-19T12:36:01;11.90;;;9.00;;
30707;SDS011;17458;48.958;8.284;2023-01-19T12:38:45;13.18;;;9.15;;
30707;SDS011;17458;48.958;8.284;2023-01-19T12:49:57;17.33;;;8.70;;
30707;SDS011;17458;48.958;8.284;2023-01-19T12:52:50;10.30;;;7.95;;
30707;SDS011;17458;48.958;8.284;2023-01-19T12:55:39;12.82;;;9.45;;
30707;SDS011;17458;48.958;8.284;2023-01-19T12:58:29;12.15;;;8.60;;
30707;SDS011;17458;48.958;8.284;2023-01-19T13:01:14;13.40;;;8.80;;
30707;SDS011;17458;48.958;8.284;2023-01-19T13:04:05;13.48;;;8.57;;
30707;SDS011;17458;48.958;8.284;2023-01-19T13:07:10;13.80;;;8.48;;
30707;SDS011;17458;48.958;8.284;2023-01-19T13:09:59;10.98;;;8.32;;
30707;SDS011;17458;48.958;8.284;2023-01-19T13:13:07;12.40;;;8.40;;
30707;SDS011;17458;48.958;8.284;2023-01-19T13:21:49;13.05;;;8.82;;
30707;SDS011;17458;48.958;8.284;2023-01-19T13:25:03;15.77;;;9.18;;
30707;SDS011;17458;48.958;8.284;2023-01-19T13:27:48;13.38;;;8.43;;
30707;SDS011;17458;48.958;8.284;2023-01-19T13:30:32;12.02;;;7.22;;
30707;SDS011;17458;48.958;8.284;2023-01-19T13:33:21;12.25;;;8.90;;
30707;SDS011;17458;48.958;8.284;2023-01-19T13:36:26;10.60;;;8.40;;
30707;SDS011;17458;48.958;8.284;2023-01-19T13:39:14;13.48;;;9.13;;
30707;SDS011;17458;48.958;8.284;2023-01-19T13:42:03;16.47;;;8.83;;
30707;SDS011;17458;48.958;8.284;2023-01-19T13:44:51;14.43;;;9.75;;
30707;SDS011;17458;48.958;8.284;2023-01-19T13:47:38;32.25;;;15.18;;
30707;SDS011;17458;48.958;8.284;2023-01-19T13:50:28;14.00;;;9.35;;
30707;SDS011;17458;48.958;8.284;2023-01-19T13:53:17;11.75;;;7.68;;
30707;SDS011;17458;48.958;8.284;2023-01-19T13:56:19;10.23;;;7.68;;
30707;SDS011;17458;48.958;8.284;2023-01-19T13:59:11;11.50;;;8.02;;
30707;SDS011;17458;48.958;8.284;2023-01-19T14:01:55;10.73;;;7.47;;
30707;SDS011;17458;48.958;8.284;2023-01-19T14:04:55;9.48;;;7.18;;
30707;SDS011;17458;48.958;8.284;2023-01-19T14:07:39;13.00;;;7.80;;
30707;SDS011;17458;48.958;8.284;2023-01-19T14:10:24;12.07;;;6.38;;
30707;SDS011;17458;48.958;8.284;2023-01-19T14:16:00;7.85;;;5.80;;
30707;SDS011;17458;48.958;8.284;2023-01-19T14:18:57;9.48;;;6.18;;
30707;SDS011;17458;48.958;8.284;2023-01-19T14:21:42;7.35;;;5.57;;
30707;SDS011;17458;48.958;8.284;2023-01-19T14:24:27;9.73;;;6.22;;
30707;SDS011;17458;48.958;8.284;2023-01-19T14:27:19;9.48;;;5.60;;
30707;SDS011;17458;48.958;8.284;2023-01-19T14:30:19;9.90;;;6.32;;
30707;SDS011;17458;48.958;8.284;2023-01-19T14:33:04;8.70;;;6.45;;
30707;SDS011;17458;48.958;8.284;2023-01-19T14:35:51;8.57;;;6.55;;
30707;SDS011;17458;48.958;8.284;2023-01-19T14:38:41;11.90;;;7.32;;
30707;SDS011;17458;48.958;8.284;2023-01-19T14:41:38;11.40;;;7.20;;
30707;SDS011;17458;48.958;8.284;2023-01-19T14:44:37;12.38;;;7.43;;
30707;SDS011;17458;48.958;8.284;2023-01-19T14:47:57;9.93;;;6.60;;
30707;SDS011;17458;48.958;8.284;2023-01-19T14:50:40;10.40;;;7.32;;
30707;SDS011;17458;48.958;8.284;2023-01-19T14:53:26;11.13;;;7.88;;
30707;SDS011;17458;48.958;8.284;2023-01-19T14:56:12;11.10;;;8.20;;
30707;SDS011;17458;48.958;8.284;2023-01-19T14:59:08;14.07;;;7.38;;
30707;SDS011;17458;48.958;8.284;2023-01-19T15:01:53;11.75;;;8.65;;
30707;SDS011;17458;48.958;8.284;2023-01-19T15:04:37;11.07;;;8.50;;
30707;SDS011;17458;48.958;8.284;2023-01-19T15:07:21;9.25;;;7.38;;
30707;SDS011;17458;48.958;8.284;2023-01-19T15:10:14;12.23;;;8.18;;
30707;SDS011;17458;48.958;8.284;2023-01-19T15:13:03;9.63;;;7.30;;
30707;SDS011;17458;48.958;8.284;2023-01-19T15:15:47;16.23;;;9.25;;
30707;SDS011;17458;48.958;8.284;2023-01-19T15:18:34;12.48;;;8.32;;
30707;SDS011;17458;48.958;8.284;2023-01-19T15:21:19;10.48;;;7.57;;
30707;SDS011;17458;48.958;8.284;2023-01-19T15:24:07;13.60;;;8.55;;
30707;SDS011;17458;48.958;8.284;2023-01-19T15:26:54;7.68;;;6.55;;
30707;SDS011;17458;48.958;8.284;2023-01-19T15:29:38;12.30;;;8.00;;
30707;SDS011;17458;48.958;8.284;2023-01-19T15:32:25;10.18;;;7.90;;
30707;SDS011;17458;48.958;8.284;2023-01-19T15:35:16;12.63;;;8.43;;
30707;SDS011;17458;48.958;8.284;2023-01-19T15:38:03;12.70;;;7.70;;
30707;SDS011;17458;48.958;8.284;2023-01-19T15:40:47;13.52;;;8.00;;
30707;SDS011;17458;48.958;8.284;2023-01-19T15:43:32;11.20;;;7.20;;
30707;SDS011;17458;48.958;8.284;2023-01-19T15:46:17;11.77;;;7.60;;
30707;SDS011;17458;48.958;8.284;2023-01-19T15:49:03;10.50;;;7.00;;
30707;SDS011;17458;48.958;8.284;2023-01-19T15:51:51;11.55;;;8.18;;
30707;SDS011;17458;48.958;8.284;2023-01-19T15:54:34;18.48;;;8.25;;
30707;SDS011;17458;48.958;8.284;2023-01-19T15:57:18;12.85;;;9.35;;
30707;SDS011;17458;48.958;8.284;2023-01-19T16:00:03;14.60;;;9.80;;
30707;SDS011;17458;48.958;8.284;2023-01-19T16:02:53;11.80;;;8.03;;
30707;SDS011;17458;48.958;8.284;2023-01-19T16:05:37;12.60;;;8.60;;
30707;SDS011;17458;48.958;8.284;2023-01-19T16:08:21;10.15;;;8.57;;
30707;SDS011;17458;48.958;8.284;2023-01-19T16:11:10;14.00;;;9.33;;
30707;SDS011;17458;48.958;8.284;2023-01-19T16:13:56;13.93;;;10.13;;
30707;SDS011;17458;48.958;8.284;2023-01-19T16:16:40;14.98;;;9.82;;
30707;SDS011;17458;48.958;8.284;2023-01-19T16:19:27;16.23;;;9.70;;
30707;SDS011;17458;48.958;8.284;2023-01-19T16:22:12;11.77;;;8.83;;
30707;SDS011;17458;48.958;8.284;2023-01-19T16:24:56;11.93;;;9.43;;
30707;SDS011;17458;48.958;8.284;2023-01-19T16:27:40;16.73;;;10.10;;
30707;SDS011;17458;48.958;8.284;2023-01-19T16:30:25;14.10;;;10.43;;
30707;SDS011;17458;48.958;8.284;2023-01-19T16:33:08;24.10;;;10.88;;
30707;SDS011;17458;48.958;8.284;2023-01-19T16:35:54;14.50;;;10.00;;
30707;SDS011;17458;48.958;8.284;2023-01-19T16:38:39;19.43;;;11.67;;
30707;SDS011;17458;48.958;8.284;2023-01-19T16:41:23;18.50;;;11.17;;
30707;SDS011;17458;48.958;8.284;2023-01-19T16:44:08;22.13;;;12.00;;
30707;SDS011;17458;48.958;8.284;2023-01-19T16:47:14;15.10;;;11.27;;
30707;SDS011;17458;48.958;8.284;2023-01-19T16:49:58;15.20;;;10.03;;
30707;SDS011;17458;48.958;8.284;2023-01-19T16:52:42;17.23;;;10.73;;
30707;SDS011;17458;48.958;8.284;2023-01-19T16:55:26;20.93;;;10.73;;
30707;SDS011;17458;48.958;8.284;2023-01-19T16:58:10;15.87;;;9.90;;
30707;SDS011;17458;48.958;8.284;2023-01-19T17:00:54;18.97;;;10.33;;
30707;SDS011;17458;48.958;8.284;2023-01-19T17:03:38;22.57;;;11.03;;
30707;SDS011;17458;48.958;8.284;2023-01-19T17:06:23;13.53;;;11.10;;
30707;SDS011;17458;48.958;8.284;2023-01-19T17:09:08;19.03;;;11.47;;
30707;SDS011;17458;48.958;8.284;2023-01-19T17:11:52;14.23;;;10.93;;
30707;SDS011;17458;48.958;8.284;2023-01-19T17:14:37;16.77;;;11.63;;
30707;SDS011;17458;48.958;8.284;2023-01-19T17:17:21;18.70;;;12.17;;
30707;SDS011;17458;48.958;8.284;2023-01-19T17:20:05;15.40;;;10.60;;
30707;SDS011;17458;48.958;8.284;2023-01-19T17:22:49;16.23;;;11.57;;
30707;SDS011;17458;48.958;8.284;2023-01-19T17:25:33;12.40;;;10.32;;
30707;SDS011;17458;48.958;8.284;2023-01-19T17:28:17;15.27;;;10.63;;
30707;SDS011;17458;48.958;8.284;2023-01-19T17:31:05;14.50;;;10.93;;
30707;SDS011;17458;48.958;8.284;2023-01-19T17:33:50;18.70;;;12.30;;
30707;SDS011;17458;48.958;8.284;2023-01-19T17:36:34;18.20;;;10.73;;